sensor_id;sensor_type;location;lat;lon;timestamp;P1;durP1;ratioP1;P2;durP2;ratioP2
59876;SDS011;45749;51.140;17.184;2022-07-06T00:02:03;6.75;;;6.05;;
59876;SDS011;45749;51.140;17.184;2022-07-06T00:04:29;5.78;;;5.08;;
59876;SDS011;45749;51.140;17.184;2022-07-06T00:06:55;6.83;;;4.80;;
59876;SDS011;45749;51.140;17.184;2022-07-06T00:09:22;7.58;;;5.90;;
59876;SDS011;45749;51.140;17.184;2022-07-06T00:11:48;7.00;;;5.55;;
59876;SDS011;45749;51.140;17.184;2022-07-06T00:14:14;8.73;;;5.20;;
59876;SDS011;45749;51.140;17.184;2022-07-06T00:16:40;6.20;;;5.15;;
59876;SDS011;45749;51.140;17.184;2022-07-06T00:19:07;7.62;;;6.17;;
59876;SDS011;45749;51.140;17.184;2022-07-06T00:21:33;8.65;;;6.35;;
59876;SDS011;45749;51.140;17.184;2022-07-06T00:23:59;7.40;;;6.62;;
59876;SDS011;45749;51.140;17.184;2022-07-06T00:26:25;7.25;;;6.55;;
59876;SDS011;45749;51.140;17.184;2022-07-06T00:28:51;6.83;;;6.15;;
59876;SDS011;45749;51.140;17.184;2022-07-06T00:31:17;6.42;;;5.83;;
59876;SDS011;45749;51.140;17.184;2022-07-06T00:33:43;6.28;;;5.67;;
59876;SDS011;45749;51.140;17.184;2022-07-06T00:36:09;7.05;;;5.90;;
59876;SDS011;45749;51.140;17.184;2022-07-06T00:38:35;10.98;;;6.45;;
59876;SDS011;45749;51.140;17.184;2022-07-06T00:41:01;7.78;;;6.55;;
59876;SDS011;45749;51.140;17.184;2022-07-06T00:43:28;7.28;;;6.62;;
59876;SDS011;45749;51.140;17.184;2022-07-06T00:45:54;8.10;;;6.05;;
59876;SDS011;45749;51.140;17.184;2022-07-06T00:48:20;8.40;;;5.87;;
59876;SDS011;45749;51.140;17.184;2022-07-06T00:50:46;7.60;;;5.85;;
59876;SDS011;45749;51.140;17.184;2022-07-06T00:53:12;5.53;;;4.58;;
59876;SDS011;45749;51.140;17.184;2022-07-06T00:55:39;7.12;;;6.17;;
59876;SDS011;45749;51.140;17.184;2022-07-06T00:58:06;7.78;;;5.50;;
59876;SDS011;45749;51.140;17.184;2022-07-06T01:00:34;6.25;;;5.20;;
59876;SDS011;45749;51.140;17.184;2022-07-06T01:03:01;5.30;;;4.78;;
59876;SDS011;45749;51.140;17.184;2022-07-06T01:05:28;6.75;;;5.75;;
59876;SDS011;45749;51.140;17.184;2022-07-06T01:07:54;6.05;;;4.47;;
59876;SDS011;45749;51.140;17.184;2022-07-06T01:10:21;5.70;;;5.05;;
59876;SDS011;45749;51.140;17.184;2022-07-06T01:12:48;6.47;;;5.75;;
59876;SDS011;45749;51.140;17.184;2022-07-06T01:15:19;5.97;;;5.08;;
59876;SDS011;45749;51.140;17.184;2022-07-06T01:17:45;6.95;;;5.12;;
59876;SDS011;45749;51.140;17.184;2022-07-06T01:20:13;5.97;;;5.37;;
59876;SDS011;45749;51.140;17.184;2022-07-06T01:22:44;6.33;;;5.05;;
59876;SDS011;45749;51.140;17.184;2022-07-06T01:25:13;4.90;;;4.28;;
59876;SDS011;45749;51.140;17.184;2022-07-06T01:27:40;6.08;;;5.05;;
59876;SDS011;45749;51.140;17.184;2022-07-06T01:30:11;5.10;;;4.60;;
59876;SDS011;45749;51.140;17.184;2022-07-06T01:32:43;5.53;;;4.92;;
59876;SDS011;45749;51.140;17.184;2022-07-06T01:35:10;7.03;;;5.62;;
59876;SDS011;45749;51.140;17.184;2022-07-06T01:37:39;8.60;;;6.10;;
59876;SDS011;45749;51.140;17.184;2022-07-06T01:40:07;6.58;;;5.75;;
59876;SDS011;45749;51.140;17.184;2022-07-06T01:42:35;6.15;;;4.97;;
59876;SDS011;45749;51.140;17.184;2022-07-06T01:45:02;6.92;;;5.03;;
59876;SDS011;45749;51.140;17.184;2022-07-06T01:47:30;5.83;;;5.17;;
59876;SDS011;45749;51.140;17.184;2022-07-06T01:49:58;7.33;;;4.95;;
59876;SDS011;45749;51.140;17.184;2022-07-06T01:52:26;6.47;;;5.35;;
59876;SDS011;45749;51.140;17.184;2022-07-06T01:54:53;5.30;;;4.70;;
59876;SDS011;45749;51.140;17.184;2022-07-06T01:57:21;7.62;;;5.35;;
59876;SDS011;45749;51.140;17.184;2022-07-06T01:59:46;10.68;;;7.30;;
59876;SDS011;45749;51.140;17.184;2022-07-06T02:02:12;19.32;;;6.37;;
59876;SDS011;45749;51.140;17.184;2022-07-06T02:04:38;8.83;;;5.80;;
59876;SDS011;45749;51.140;17.184;2022-07-06T02:07:04;11.45;;;6.00;;
59876;SDS011;45749;51.140;17.184;2022-07-06T02:09:30;12.95;;;6.70;;
59876;SDS011;45749;51.140;17.184;2022-07-06T02:11:57;12.28;;;6.15;;
59876;SDS011;45749;51.140;17.184;2022-07-06T02:14:22;14.00;;;6.30;;
59876;SDS011;45749;51.140;17.184;2022-07-06T02:16:49;9.70;;;5.58;;
59876;SDS011;45749;51.140;17.184;2022-07-06T02:19:15;7.20;;;5.10;;
59876;SDS011;45749;51.140;17.184;2022-07-06T02:21:41;12.07;;;6.17;;
59876;SDS011;45749;51.140;17.184;2022-07-06T02:24:07;12.93;;;7.75;;
59876;SDS011;45749;51.140;17.184;2022-07-06T02:26:33;10.85;;;6.62;;
59876;SDS011;45749;51.140;17.184;2022-07-06T02:28:59;10.75;;;7.72;;
59876;SDS011;45749;51.140;17.184;2022-07-06T02:31:25;11.70;;;7.28;;
59876;SDS011;45749;51.140;17.184;2022-07-06T02:33:51;8.58;;;7.47;;
59876;SDS011;45749;51.140;17.184;2022-07-06T02:36:17;8.88;;;6.92;;
59876;SDS011;45749;51.140;17.184;2022-07-06T02:38:43;7.33;;;6.28;;
59876;SDS011;45749;51.140;17.184;2022-07-06T02:41:08;10.08;;;6.72;;
59876;SDS011;45749;51.140;17.184;2022-07-06T02:43:36;13.93;;;6.78;;
59876;SDS011;45749;51.140;17.184;2022-07-06T02:46:04;7.83;;;5.50;;
59876;SDS011;45749;51.140;17.184;2022-07-06T02:48:31;7.33;;;5.53;;
59876;SDS011;45749;51.140;17.184;2022-07-06T02:50:56;10.80;;;6.47;;
59876;SDS011;45749;51.140;17.184;2022-07-06T02:53:24;10.25;;;7.53;;
59876;SDS011;45749;51.140;17.184;2022-07-06T02:55:50;11.65;;;7.62;;
59876;SDS011;45749;51.140;17.184;2022-07-06T02:58:16;8.13;;;7.15;;
59876;SDS011;45749;51.140;17.184;2022-07-06T03:00:42;16.30;;;9.18;;
59876;SDS011;45749;51.140;17.184;2022-07-06T03:03:08;9.35;;;7.08;;
59876;SDS011;45749;51.140;17.184;2022-07-06T03:05:35;11.85;;;6.58;;
59876;SDS011;45749;51.140;17.184;2022-07-06T03:08:01;15.30;;;7.72;;
59876;SDS011;45749;51.140;17.184;2022-07-06T03:10:27;12.53;;;7.00;;
59876;SDS011;45749;51.140;17.184;2022-07-06T03:12:53;15.30;;;7.67;;
59876;SDS011;45749;51.140;17.184;2022-07-06T03:15:20;12.53;;;7.35;;
59876;SDS011;45749;51.140;17.184;2022-07-06T03:17:45;17.15;;;8.13;;
59876;SDS011;45749;51.140;17.184;2022-07-06T03:20:12;17.30;;;6.80;;
59876;SDS011;45749;51.140;17.184;2022-07-06T03:22:39;17.48;;;7.70;;
59876;SDS011;45749;51.140;17.184;2022-07-06T03:25:05;16.70;;;7.33;;
59876;SDS011;45749;51.140;17.184;2022-07-06T03:27:31;16.90;;;7.30;;
59876;SDS011;45749;51.140;17.184;2022-07-06T03:29:59;11.53;;;7.75;;
59876;SDS011;45749;51.140;17.184;2022-07-06T03:32:24;12.65;;;7.00;;
59876;SDS011;45749;51.140;17.184;2022-07-06T03:34:50;19.25;;;8.38;;
59876;SDS011;45749;51.140;17.184;2022-07-06T03:37:16;14.55;;;7.75;;
59876;SDS011;45749;51.140;17.184;2022-07-06T03:39:42;16.20;;;8.55;;
59876;SDS011;45749;51.140;17.184;2022-07-06T03:42:08;8.20;;;6.65;;
59876;SDS011;45749;51.140;17.184;2022-07-06T03:44:34;8.83;;;8.00;;
59876;SDS011;45749;51.140;17.184;2022-07-06T03:47:00;8.70;;;7.75;;
59876;SDS011;45749;51.140;17.184;2022-07-06T03:49:27;12.23;;;8.33;;
59876;SDS011;45749;51.140;17.184;2022-07-06T03:51:53;8.78;;;7.58;;
59876;SDS011;45749;51.140;17.184;2022-07-06T03:54:20;9.83;;;7.53;;
59876;SDS011;45749;51.140;17.184;2022-07-06T03:56:46;10.00;;;7.42;;
59876;SDS011;45749;51.140;17.184;2022-07-06T03:59:12;10.45;;;7.80;;
59876;SDS011;45749;51.140;17.184;2022-07-06T04:01:39;10.95;;;7.40;;
59876;SDS011;45749;51.140;17.184;2022-07-06T04:04:05;8.95;;;6.78;;
59876;SDS011;45749;51.140;17.184;2022-07-06T04:06:31;8.68;;;7.55;;
59876;SDS011;45749;51.140;17.184;2022-07-06T04:08:59;8.28;;;6.55;;
59876;SDS011;45749;51.140;17.184;2022-07-06T04:11:26;7.55;;;6.87;;
59876;SDS011;45749;51.140;17.184;2022-07-06T04:13:51;11.30;;;7.10;;
59876;SDS011;45749;51.140;17.184;2022-07-06T04:16:19;7.78;;;6.80;;
59876;SDS011;45749;51.140;17.184;2022-07-06T04:18:45;7.72;;;6.35;;
59876;SDS011;45749;51.140;17.184;2022-07-06T04:21:11;7.15;;;6.45;;
59876;SDS011;45749;51.140;17.184;2022-07-06T04:23:37;9.08;;;6.12;;
59876;SDS011;45749;51.140;17.184;2022-07-06T04:26:03;6.80;;;5.58;;
59876;SDS011;45749;51.140;17.184;2022-07-06T04:28:29;7.12;;;6.22;;
59876;SDS011;45749;51.140;17.184;2022-07-06T04:30:56;10.28;;;6.42;;
59876;SDS011;45749;51.140;17.184;2022-07-06T04:33:22;9.90;;;6.55;;
59876;SDS011;45749;51.140;17.184;2022-07-06T04:35:48;8.10;;;6.33;;
59876;SDS011;45749;51.140;17.184;2022-07-06T04:38:14;7.58;;;6.00;;
59876;SDS011;45749;51.140;17.184;2022-07-06T04:40:40;14.70;;;6.75;;
59876;SDS011;45749;51.140;17.184;2022-07-06T04:43:06;20.10;;;8.40;;
59876;SDS011;45749;51.140;17.184;2022-07-06T04:45:33;9.23;;;6.70;;
59876;SDS011;45749;51.140;17.184;2022-07-06T04:47:59;7.25;;;5.37;;
59876;SDS011;45749;51.140;17.184;2022-07-06T04:50:25;7.12;;;5.55;;
59876;SDS011;45749;51.140;17.184;2022-07-06T04:52:51;6.47;;;5.87;;
59876;SDS011;45749;51.140;17.184;2022-07-06T04:55:17;6.58;;;5.03;;
59876;SDS011;45749;51.140;17.184;2022-07-06T04:57:43;6.70;;;5.65;;
59876;SDS011;45749;51.140;17.184;2022-07-06T05:00:10;8.68;;;6.00;;
59876;SDS011;45749;51.140;17.184;2022-07-06T05:02:37;6.67;;;5.70;;
59876;SDS011;45749;51.140;17.184;2022-07-06T05:05:03;8.88;;;6.25;;
59876;SDS011;45749;51.140;17.184;2022-07-06T05:07:30;6.37;;;5.78;;
59876;SDS011;45749;51.140;17.184;2022-07-06T05:09:58;5.55;;;4.85;;
59876;SDS011;45749;51.140;17.184;2022-07-06T05:12:24;8.10;;;4.90;;
59876;SDS011;45749;51.140;17.184;2022-07-06T05:14:50;7.05;;;4.30;;
59876;SDS011;45749;51.140;17.184;2022-07-06T05:17:16;9.43;;;4.55;;
59876;SDS011;45749;51.140;17.184;2022-07-06T05:19:42;6.92;;;4.40;;
59876;SDS011;45749;51.140;17.184;2022-07-06T05:22:08;5.42;;;4.72;;
59876;SDS011;45749;51.140;17.184;2022-07-06T05:24:34;4.53;;;3.90;;
59876;SDS011;45749;51.140;17.184;2022-07-06T05:27:00;4.05;;;3.42;;
59876;SDS011;45749;51.140;17.184;2022-07-06T05:29:26;4.00;;;3.33;;
59876;SDS011;45749;51.140;17.184;2022-07-06T05:31:52;5.25;;;3.95;;
59876;SDS011;45749;51.140;17.184;2022-07-06T05:34:18;3.98;;;3.40;;
59876;SDS011;45749;51.140;17.184;2022-07-06T05:36:44;7.12;;;3.27;;
59876;SDS011;45749;51.140;17.184;2022-07-06T05:39:10;4.67;;;3.75;;
59876;SDS011;45749;51.140;17.184;2022-07-06T05:41:36;4.85;;;3.72;;
59876;SDS011;45749;51.140;17.184;2022-07-06T05:44:02;4.00;;;3.55;;
59876;SDS011;45749;51.140;17.184;2022-07-06T05:46:28;5.12;;;3.80;;
59876;SDS011;45749;51.140;17.184;2022-07-06T05:48:54;5.42;;;3.27;;
59876;SDS011;45749;51.140;17.184;2022-07-06T05:51:39;8.40;;;4.65;;
59876;SDS011;45749;51.140;17.184;2022-07-06T05:54:05;8.55;;;5.53;;
59876;SDS011;45749;51.140;17.184;2022-07-06T05:56:31;4.22;;;3.83;;
59876;SDS011;45749;51.140;17.184;2022-07-06T05:58:57;5.12;;;4.00;;
59876;SDS011;45749;51.140;17.184;2022-07-06T06:01:23;5.05;;;4.12;;
59876;SDS011;45749;51.140;17.184;2022-07-06T06:03:49;6.92;;;3.98;;
59876;SDS011;45749;51.140;17.184;2022-07-06T06:06:15;3.90;;;3.47;;
59876;SDS011;45749;51.140;17.184;2022-07-06T06:08:41;12.63;;;10.18;;
59876;SDS011;45749;51.140;17.184;2022-07-06T06:11:07;12.13;;;9.30;;
59876;SDS011;45749;51.140;17.184;2022-07-06T06:13:34;6.87;;;5.55;;
59876;SDS011;45749;51.140;17.184;2022-07-06T06:16:00;4.42;;;4.03;;
59876;SDS011;45749;51.140;17.184;2022-07-06T06:18:25;6.33;;;3.75;;
59876;SDS011;45749;51.140;17.184;2022-07-06T06:20:51;6.20;;;4.50;;
59876;SDS011;45749;51.140;17.184;2022-07-06T06:23:18;5.90;;;4.15;;
59876;SDS011;45749;51.140;17.184;2022-07-06T06:25:44;4.42;;;3.58;;
59876;SDS011;45749;51.140;17.184;2022-07-06T06:28:10;4.20;;;3.80;;
59876;SDS011;45749;51.140;17.184;2022-07-06T06:30:37;5.00;;;4.58;;
59876;SDS011;45749;51.140;17.184;2022-07-06T06:33:08;4.92;;;4.05;;
59876;SDS011;45749;51.140;17.184;2022-07-06T06:35:44;6.37;;;4.10;;
59876;SDS011;45749;51.140;17.184;2022-07-06T06:38:15;4.78;;;3.77;;
59876;SDS011;45749;51.140;17.184;2022-07-06T06:40:43;6.15;;;4.97;;
59876;SDS011;45749;51.140;17.184;2022-07-06T06:43:10;5.70;;;4.42;;
59876;SDS011;45749;51.140;17.184;2022-07-06T06:45:36;5.35;;;4.45;;
59876;SDS011;45749;51.140;17.184;2022-07-06T06:48:02;7.67;;;5.65;;
59876;SDS011;45749;51.140;17.184;2022-07-06T06:50:29;6.22;;;4.85;;
59876;SDS011;45749;51.140;17.184;2022-07-06T06:52:55;7.15;;;5.55;;
59876;SDS011;45749;51.140;17.184;2022-07-06T06:55:21;7.15;;;5.40;;
59876;SDS011;45749;51.140;17.184;2022-07-06T06:57:47;7.67;;;5.58;;
59876;SDS011;45749;51.140;17.184;2022-07-06T07:00:14;5.95;;;5.40;;
59876;SDS011;45749;51.140;17.184;2022-07-06T07:02:40;8.48;;;5.60;;
59876;SDS011;45749;51.140;17.184;2022-07-06T07:05:07;7.33;;;5.62;;
59876;SDS011;45749;51.140;17.184;2022-07-06T07:07:33;6.80;;;5.65;;
59876;SDS011;45749;51.140;17.184;2022-07-06T07:10:00;7.10;;;5.42;;
59876;SDS011;45749;51.140;17.184;2022-07-06T07:12:26;6.65;;;5.08;;
59876;SDS011;45749;51.140;17.184;2022-07-06T07:14:53;7.28;;;6.58;;
59876;SDS011;45749;51.140;17.184;2022-07-06T07:17:19;8.80;;;6.30;;
59876;SDS011;45749;51.140;17.184;2022-07-06T07:19:45;7.17;;;6.15;;
59876;SDS011;45749;51.140;17.184;2022-07-06T07:22:11;6.30;;;5.80;;
59876;SDS011;45749;51.140;17.184;2022-07-06T07:24:37;7.10;;;5.85;;
59876;SDS011;45749;51.140;17.184;2022-07-06T07:27:03;8.33;;;6.55;;
59876;SDS011;45749;51.140;17.184;2022-07-06T07:29:30;8.48;;;6.12;;
59876;SDS011;45749;51.140;17.184;2022-07-06T07:31:56;7.00;;;5.53;;
59876;SDS011;45749;51.140;17.184;2022-07-06T07:34:22;5.35;;;4.95;;
59876;SDS011;45749;51.140;17.184;2022-07-06T07:36:48;7.12;;;5.30;;
59876;SDS011;45749;51.140;17.184;2022-07-06T07:39:14;8.20;;;4.72;;
59876;SDS011;45749;51.140;17.184;2022-07-06T07:41:40;4.30;;;3.90;;
59876;SDS011;45749;51.140;17.184;2022-07-06T07:44:07;5.72;;;4.80;;
59876;SDS011;45749;51.140;17.184;2022-07-06T07:46:33;5.42;;;4.92;;
59876;SDS011;45749;51.140;17.184;2022-07-06T07:48:59;8.03;;;5.28;;
59876;SDS011;45749;51.140;17.184;2022-07-06T07:51:25;5.20;;;4.70;;
59876;SDS011;45749;51.140;17.184;2022-07-06T07:53:51;6.95;;;4.22;;
59876;SDS011;45749;51.140;17.184;2022-07-06T07:56:17;8.08;;;4.62;;
59876;SDS011;45749;51.140;17.184;2022-07-06T07:58:43;4.40;;;4.00;;
59876;SDS011;45749;51.140;17.184;2022-07-06T08:01:09;5.15;;;4.65;;
59876;SDS011;45749;51.140;17.184;2022-07-06T08:03:35;4.28;;;3.87;;
59876;SDS011;45749;51.140;17.184;2022-07-06T08:06:01;5.05;;;4.37;;
59876;SDS011;45749;51.140;17.184;2022-07-06T08:08:27;5.60;;;4.00;;
59876;SDS011;45749;51.140;17.184;2022-07-06T08:10:54;4.05;;;3.65;;
59876;SDS011;45749;51.140;17.184;2022-07-06T08:13:19;8.08;;;4.58;;
59876;SDS011;45749;51.140;17.184;2022-07-06T08:15:45;4.55;;;3.90;;
59876;SDS011;45749;51.140;17.184;2022-07-06T08:18:11;7.20;;;4.65;;
59876;SDS011;45749;51.140;17.184;2022-07-06T08:20:37;3.95;;;3.58;;
59876;SDS011;45749;51.140;17.184;2022-07-06T08:23:03;4.83;;;4.17;;
59876;SDS011;45749;51.140;17.184;2022-07-06T08:25:30;7.00;;;3.87;;
59876;SDS011;45749;51.140;17.184;2022-07-06T08:27:57;4.85;;;3.37;;
59876;SDS011;45749;51.140;17.184;2022-07-06T08:30:23;3.70;;;3.25;;
59876;SDS011;45749;51.140;17.184;2022-07-06T08:32:50;7.65;;;3.37;;
59876;SDS011;45749;51.140;17.184;2022-07-06T08:35:16;7.03;;;3.25;;
59876;SDS011;45749;51.140;17.184;2022-07-06T08:37:42;6.03;;;3.15;;
59876;SDS011;45749;51.140;17.184;2022-07-06T08:40:09;4.78;;;3.75;;
59876;SDS011;45749;51.140;17.184;2022-07-06T08:42:36;3.10;;;2.90;;
59876;SDS011;45749;51.140;17.184;2022-07-06T08:45:03;5.42;;;3.40;;
59876;SDS011;45749;51.140;17.184;2022-07-06T08:47:31;9.33;;;4.08;;
59876;SDS011;45749;51.140;17.184;2022-07-06T08:49:57;3.90;;;3.25;;
59876;SDS011;45749;51.140;17.184;2022-07-06T08:52:24;5.75;;;3.72;;
59876;SDS011;45749;51.140;17.184;2022-07-06T08:54:50;3.92;;;2.90;;
59876;SDS011;45749;51.140;17.184;2022-07-06T08:57:17;5.33;;;4.05;;
59876;SDS011;45749;51.140;17.184;2022-07-06T08:59:43;3.27;;;2.98;;
59876;SDS011;45749;51.140;17.184;2022-07-06T09:02:09;5.12;;;3.62;;
59876;SDS011;45749;51.140;17.184;2022-07-06T09:04:36;3.80;;;2.92;;
59876;SDS011;45749;51.140;17.184;2022-07-06T09:07:03;3.50;;;3.20;;
59876;SDS011;45749;51.140;17.184;2022-07-06T09:09:30;4.17;;;2.87;;
59876;SDS011;45749;51.140;17.184;2022-07-06T09:11:56;95.20;;;26.87;;
59876;SDS011;45749;51.140;17.184;2022-07-06T09:14:23;4.62;;;4.00;;
59876;SDS011;45749;51.140;17.184;2022-07-06T09:16:56;4.85;;;3.40;;
59876;SDS011;45749;51.140;17.184;2022-07-06T09:19:36;6.92;;;2.80;;
59876;SDS011;45749;51.140;17.184;2022-07-06T09:22:01;3.45;;;2.22;;
59876;SDS011;45749;51.140;17.184;2022-07-06T09:24:28;4.83;;;3.12;;
59876;SDS011;45749;51.140;17.184;2022-07-06T09:27:04;4.08;;;3.22;;
59876;SDS011;45749;51.140;17.184;2022-07-06T09:29:37;3.75;;;3.40;;
59876;SDS011;45749;51.140;17.184;2022-07-06T09:32:05;5.45;;;2.67;;
59876;SDS011;45749;51.140;17.184;2022-07-06T09:34:44;4.55;;;2.60;;
59876;SDS011;45749;51.140;17.184;2022-07-06T09:37:12;3.87;;;2.90;;
59876;SDS011;45749;51.140;17.184;2022-07-06T09:39:39;4.53;;;3.37;;
59876;SDS011;45749;51.140;17.184;2022-07-06T09:42:06;4.35;;;3.08;;
59876;SDS011;45749;51.140;17.184;2022-07-06T09:44:40;6.05;;;3.20;;
59876;SDS011;45749;51.140;17.184;2022-07-06T09:47:09;4.22;;;3.33;;
59876;SDS011;45749;51.140;17.184;2022-07-06T09:49:37;4.85;;;3.05;;
59876;SDS011;45749;51.140;17.184;2022-07-06T09:54:48;6.35;;;3.70;;
59876;SDS011;45749;51.140;17.184;2022-07-06T09:57:14;3.47;;;2.80;;
59876;SDS011;45749;51.140;17.184;2022-07-06T09:59:40;4.53;;;3.42;;
59876;SDS011;45749;51.140;17.184;2022-07-06T10:02:15;3.55;;;2.60;;
59876;SDS011;45749;51.140;17.184;2022-07-06T10:11:02;3.72;;;2.22;;
59876;SDS011;45749;51.140;17.184;2022-07-06T10:16:26;2.40;;;2.08;;
59876;SDS011;45749;51.140;17.184;2022-07-06T10:18:54;6.00;;;2.90;;
59876;SDS011;45749;51.140;17.184;2022-07-06T10:21:59;2.45;;;2.25;;
59876;SDS011;45749;51.140;17.184;2022-07-06T10:24:25;2.45;;;2.25;;
59876;SDS011;45749;51.140;17.184;2022-07-06T10:26:53;2.77;;;2.08;;
59876;SDS011;45749;51.140;17.184;2022-07-06T10:29:20;3.37;;;2.10;;
59876;SDS011;45749;51.140;17.184;2022-07-06T10:31:47;2.90;;;2.20;;
59876;SDS011;45749;51.140;17.184;2022-07-06T10:34:18;3.47;;;2.42;;
59876;SDS011;45749;51.140;17.184;2022-07-06T10:36:49;4.15;;;2.12;;
59876;SDS011;45749;51.140;17.184;2022-07-06T10:39:36;10.88;;;7.60;;
59876;SDS011;45749;51.140;17.184;2022-07-06T10:45:15;3.52;;;1.57;;
59876;SDS011;45749;51.140;17.184;2022-07-06T10:50:46;1.47;;;1.20;;
59876;SDS011;45749;51.140;17.184;2022-07-06T10:53:17;4.70;;;1.90;;
59876;SDS011;45749;51.140;17.184;2022-07-06T10:55:54;3.27;;;2.15;;
59876;SDS011;45749;51.140;17.184;2022-07-06T10:58:34;3.27;;;1.70;;
59876;SDS011;45749;51.140;17.184;2022-07-06T11:01:17;3.90;;;1.80;;
59876;SDS011;45749;51.140;17.184;2022-07-06T11:06:27;5.55;;;2.30;;
59876;SDS011;45749;51.140;17.184;2022-07-06T11:09:07;4.87;;;2.10;;
59876;SDS011;45749;51.140;17.184;2022-07-06T11:19:21;3.35;;;1.92;;
59876;SDS011;45749;51.140;17.184;2022-07-06T11:24:32;4.78;;;2.65;;
59876;SDS011;45749;51.140;17.184;2022-07-06T11:27:08;2.50;;;2.20;;
59876;SDS011;45749;51.140;17.184;2022-07-06T11:29:35;5.47;;;3.17;;
59876;SDS011;45749;51.140;17.184;2022-07-06T11:32:04;7.17;;;2.62;;
59876;SDS011;45749;51.140;17.184;2022-07-06T11:34:34;6.58;;;2.90;;
59876;SDS011;45749;51.140;17.184;2022-07-06T11:37:11;3.65;;;2.52;;
59876;SDS011;45749;51.140;17.184;2022-07-06T11:39:43;5.12;;;3.08;;
59876;SDS011;45749;51.140;17.184;2022-07-06T11:42:12;3.37;;;2.17;;
59876;SDS011;45749;51.140;17.184;2022-07-06T11:44:43;3.75;;;1.98;;
59876;SDS011;45749;51.140;17.184;2022-07-06T11:47:10;2.20;;;1.92;;
59876;SDS011;45749;51.140;17.184;2022-07-06T11:49:38;3.10;;;2.12;;
59876;SDS011;45749;51.140;17.184;2022-07-06T11:52:06;1.60;;;1.50;;
59876;SDS011;45749;51.140;17.184;2022-07-06T11:54:38;3.95;;;2.50;;
59876;SDS011;45749;51.140;17.184;2022-07-06T11:57:09;2.20;;;1.60;;
59876;SDS011;45749;51.140;17.184;2022-07-06T11:59:37;5.70;;;2.08;;
59876;SDS011;45749;51.140;17.184;2022-07-06T12:02:06;2.12;;;1.50;;
59876;SDS011;45749;51.140;17.184;2022-07-06T12:04:39;1.67;;;1.25;;
59876;SDS011;45749;51.140;17.184;2022-07-06T12:07:07;2.25;;;1.80;;
59876;SDS011;45749;51.140;17.184;2022-07-06T12:09:43;3.62;;;1.42;;
59876;SDS011;45749;51.140;17.184;2022-07-06T12:12:11;3.00;;;1.62;;
59876;SDS011;45749;51.140;17.184;2022-07-06T12:14:39;1.90;;;1.32;;
59876;SDS011;45749;51.140;17.184;2022-07-06T12:17:07;2.85;;;1.17;;
59876;SDS011;45749;51.140;17.184;2022-07-06T12:19:37;2.20;;;1.37;;
59876;SDS011;45749;51.140;17.184;2022-07-06T12:22:06;1.40;;;1.25;;
59876;SDS011;45749;51.140;17.184;2022-07-06T12:24:36;3.72;;;0.78;;
59876;SDS011;45749;51.140;17.184;2022-07-06T12:29:42;3.17;;;0.78;;
59876;SDS011;45749;51.140;17.184;2022-07-06T12:32:14;1.60;;;0.95;;
59876;SDS011;45749;51.140;17.184;2022-07-06T12:34:47;2.22;;;1.00;;
59876;SDS011;45749;51.140;17.184;2022-07-06T12:37:34;2.95;;;1.10;;
59876;SDS011;45749;51.140;17.184;2022-07-06T12:40:11;3.02;;;1.30;;
59876;SDS011;45749;51.140;17.184;2022-07-06T12:42:46;2.40;;;1.25;;
59876;SDS011;45749;51.140;17.184;2022-07-06T12:45:13;1.02;;;0.80;;
59876;SDS011;45749;51.140;17.184;2022-07-06T12:47:39;2.22;;;0.95;;
59876;SDS011;45749;51.140;17.184;2022-07-06T12:50:08;4.95;;;0.80;;
59876;SDS011;45749;51.140;17.184;2022-07-06T12:52:36;4.03;;;0.95;;
59876;SDS011;45749;51.140;17.184;2022-07-06T12:55:04;2.22;;;1.80;;
59876;SDS011;45749;51.140;17.184;2022-07-06T12:57:43;1.98;;;1.07;;
59876;SDS011;45749;51.140;17.184;2022-07-06T13:00:13;1.57;;;0.95;;
59876;SDS011;45749;51.140;17.184;2022-07-06T13:02:43;3.52;;;1.62;;
59876;SDS011;45749;51.140;17.184;2022-07-06T13:05:12;5.37;;;2.72;;
59876;SDS011;45749;51.140;17.184;2022-07-06T13:07:44;4.37;;;1.95;;
59876;SDS011;45749;51.140;17.184;2022-07-06T13:10:12;4.60;;;2.33;;
59876;SDS011;45749;51.140;17.184;2022-07-06T13:12:45;3.83;;;1.85;;
59876;SDS011;45749;51.140;17.184;2022-07-06T13:15:12;3.80;;;1.70;;
59876;SDS011;45749;51.140;17.184;2022-07-06T13:17:38;4.75;;;2.35;;
59876;SDS011;45749;51.140;17.184;2022-07-06T13:20:12;6.50;;;2.30;;
59876;SDS011;45749;51.140;17.184;2022-07-06T13:22:36;3.85;;;2.08;;
59876;SDS011;45749;51.140;17.184;2022-07-06T13:25:03;4.15;;;1.60;;
59876;SDS011;45749;51.140;17.184;2022-07-06T13:27:30;3.20;;;2.15;;
59876;SDS011;45749;51.140;17.184;2022-07-06T13:29:56;2.90;;;2.20;;
59876;SDS011;45749;51.140;17.184;2022-07-06T13:32:22;5.35;;;2.05;;
59876;SDS011;45749;51.140;17.184;2022-07-06T13:34:48;4.85;;;1.77;;
59876;SDS011;45749;51.140;17.184;2022-07-06T13:37:15;2.50;;;1.70;;
59876;SDS011;45749;51.140;17.184;2022-07-06T13:39:41;3.42;;;1.87;;
59876;SDS011;45749;51.140;17.184;2022-07-06T13:42:06;2.10;;;1.62;;
59876;SDS011;45749;51.140;17.184;2022-07-06T13:44:34;5.37;;;3.02;;
59876;SDS011;45749;51.140;17.184;2022-07-06T13:47:00;5.25;;;2.55;;
59876;SDS011;45749;51.140;17.184;2022-07-06T13:49:27;2.47;;;1.32;;
59876;SDS011;45749;51.140;17.184;2022-07-06T13:51:53;3.75;;;1.62;;
59876;SDS011;45749;51.140;17.184;2022-07-06T13:54:20;5.55;;;2.50;;
59876;SDS011;45749;51.140;17.184;2022-07-06T13:56:46;3.62;;;1.90;;
59876;SDS011;45749;51.140;17.184;2022-07-06T13:59:12;4.40;;;1.57;;
59876;SDS011;45749;51.140;17.184;2022-07-06T14:01:38;3.85;;;1.77;;
59876;SDS011;45749;51.140;17.184;2022-07-06T14:04:04;5.95;;;1.77;;
59876;SDS011;45749;51.140;17.184;2022-07-06T14:06:30;4.78;;;2.33;;
59876;SDS011;45749;51.140;17.184;2022-07-06T14:08:57;2.67;;;1.45;;
59876;SDS011;45749;51.140;17.184;2022-07-06T14:11:23;3.58;;;1.57;;
59876;SDS011;45749;51.140;17.184;2022-07-06T14:13:49;2.65;;;1.65;;
59876;SDS011;45749;51.140;17.184;2022-07-06T14:16:15;4.03;;;1.60;;
59876;SDS011;45749;51.140;17.184;2022-07-06T14:18:41;3.52;;;1.10;;
59876;SDS011;45749;51.140;17.184;2022-07-06T14:21:08;1.98;;;1.42;;
59876;SDS011;45749;51.140;17.184;2022-07-06T14:23:34;2.77;;;1.12;;
59876;SDS011;45749;51.140;17.184;2022-07-06T14:26:00;4.55;;;1.22;;
59876;SDS011;45749;51.140;17.184;2022-07-06T14:28:26;3.67;;;1.17;;
59876;SDS011;45749;51.140;17.184;2022-07-06T14:30:52;1.45;;;0.70;;
59876;SDS011;45749;51.140;17.184;2022-07-06T14:33:19;3.08;;;1.27;;
59876;SDS011;45749;51.140;17.184;2022-07-06T14:35:46;3.35;;;1.60;;
59876;SDS011;45749;51.140;17.184;2022-07-06T14:38:14;1.50;;;1.10;;
59876;SDS011;45749;51.140;17.184;2022-07-06T14:40:41;3.22;;;0.95;;
59876;SDS011;45749;51.140;17.184;2022-07-06T14:43:08;1.95;;;1.17;;
59876;SDS011;45749;51.140;17.184;2022-07-06T14:45:34;14.35;;;11.15;;
59876;SDS011;45749;51.140;17.184;2022-07-06T14:48:00;3.42;;;2.80;;
59876;SDS011;45749;51.140;17.184;2022-07-06T14:50:26;5.12;;;3.42;;
59876;SDS011;45749;51.140;17.184;2022-07-06T14:52:52;3.37;;;2.27;;
59876;SDS011;45749;51.140;17.184;2022-07-06T14:55:20;4.58;;;1.47;;
59876;SDS011;45749;51.140;17.184;2022-07-06T14:57:47;2.12;;;1.10;;
59876;SDS011;45749;51.140;17.184;2022-07-06T15:00:13;5.58;;;3.08;;
59876;SDS011;45749;51.140;17.184;2022-07-06T15:02:40;4.28;;;2.12;;
59876;SDS011;45749;51.140;17.184;2022-07-06T15:05:07;2.25;;;1.27;;
59876;SDS011;45749;51.140;17.184;2022-07-06T15:07:35;2.85;;;1.65;;
59876;SDS011;45749;51.140;17.184;2022-07-06T15:10:02;4.03;;;1.80;;